McCook, NE

7:56 AM CDT en Octubre 30, 2014 (GMT -0500)
McCook Municipal | Change Station
CLOSE
Current Station
Aeropuerto
Location: McCook,
Altura: 2579 ft
Estaciones meteorológicas cercanas

Alt 2579 ft 40.20 °N, 100.59 °W | Updated 1 hour ago

Despejado
Despejado
40 ° F
Sensación térmica 33 ° F
N
12
Viento Variable Viento desde ONO

Hoy
Alta -- | Baja -- ° F
--% Posibilidad de precipitaciones
Ayer
Alta -- | Baja -- ° F
Precip. -- pul
8:09 AM 6:41 PM
Creciente, 43% visible
Presión 30.19 pul
Visibilidad 10.0 Millas
Nubes Despejado
Vientos helados 33 ° F
Punto de rocío 25 ° F
Humedad 55%
Precipitaciones 0.00 pul
Espesor de la nieve No disponible.
UV 0 de una escala de 12
Polen 1.80 de una escala de 12
Calidad del aire No disponible.
Flu Activity No disponible.
METAR KMCK 301153Z AUTO 29010KT 10SM CLR 04/M04 A3019 RMK AO2 SLP223 T00441039 10128 20028 53024

More Conditions Fewer Conditions

Presión 30.19 pul
Visibilidad 10.0 Millas
Nubes Despejado
Vientos helados 33 ° F
Punto de rocío 25 ° F
Humedad 55%
Precipitaciones 0.00 pul
Espesor de la nieve No disponible.
UV 0 de una escala de 12
Polen 1.80 de una escala de 12
Calidad del aire No disponible.
Flu Activity No disponible.
METAR KMCK 301153Z AUTO 29010KT 10SM CLR 04/M04 A3019 RMK AO2 SLP223 T00441039 10128 20028 53024

More Conditions Fewer Conditions

10-Day Weather Forecast

Almanac

Astronomía

Oct. 30, 2014 Salida Puesta
Hora real
Crepúsculo civil
Crepúsculo náutico
Crepúsculo astronómico
Luna
Horas de luz
Horas de luz
Tomorrow will be .
, % of the Moon is Illuminated

Extremos de hoy

Máximos del estado Bajos del estado

Community

WunderPhotos

Upload Photos

1,766,353 ¡fotos cargadas!

WunderBlogs® & News

Nearby

Calidad del aire

  Calidad del aire Índice AQ Contaminante
Not available.

Grosos de nieve

Estación Profundido Altura

Actividad de terremotos

Ciudad Distance Mag. Tiempo y dato
Magnitud mínima muestra es 2,5.

Temperaturas de aguas costeras

Lugar Temperatura

Estaciones meteorológicas cercanas